Marble Hill, Missouri
Current Conditions -  °F | °C
As of 4:53 AM on Friday 31 Oct 2014 (Local Time) from KCGI Reporting Station
Broken Clouds Broken Clouds  
Wind Chill: 50°   Ceiling: 10000
Heat Index: 50°   Visibility: 10mi
Dew Point: 46°   Wind: 6mph
Humidity: 86%   Direction: 330°NNW
Pressure: 30.03"   Gusts: NA
Location:  37.31°N, 89.97°W
Report Text: KCGI 310953Z AUTO 33005KT 10SM BKN100 10/08 A3003 RMK AO2 SLP170 T01000078 TSNO
Loading
Personal Weather Stations






























Interactive Weather Map
Tropical Storm Tracking
New forecast layout! Learn more

10-Day Weather Forecast

Advertisements
Track Severe Weather on mobile